»·PEaware :: DLH320 KLAS-KASE

DLH320 :: KLAS-KASE

FLIGHT INFORMATION

Flight Status: Arrived
Operator:
Lufthansa
More flights by this operator :: More flights under this callsign
Pilot: Miguel Angel F. (25809)
Aircraft: AIRBUS A320
(A320)
More flights by this aircraft type
Origin: KLAS McCarran Intl
United States
Destination: KASE Aspen-Pitkin Co/Sardy
United States
More flights between these airports :: More routes between these airports
Route: +TRALR9 TRALR DICEE IBSKI SINSY LOYYD SKIER DBL
File this flight plan on PilotEdge
Remarks: RMK / SIMBRIEF
Altitude:
(Current/Filed)
35,000ft
Speed:
(Current/Filed)
432kts
Departed: 20-Mar-20 04:46 PM
Arrived: 20-Mar-20 06:03 PM
Distance/Time
Traveled:
436nm/1:17
Distance/Time
To Go:
Arrived

Flight Plot

Page will automatically refresh every two minutes.

Flight plan parsing failed; only flown route is shown


Map Options




Map Legend


Flown Route
Filed Route
Departure Airport
Arrival Airport
Navaid (VOR, NDB)
Fix

Horizontal Profiles

Position Reports

Time Latitude Longitude Heading Altitude Ground
Speed
20-Mar-20 16:16 36.080406 -115.134859 268 2062ft 0kts
20-Mar-20 16:17 36.080406 -115.134859 268 2062ft 0kts
20-Mar-20 16:18 36.080406 -115.134859 268 2062ft 0kts
20-Mar-20 16:19 36.080406 -115.134859 268 2062ft 0kts
20-Mar-20 16:20 36.080406 -115.134859 268 2062ft 0kts
20-Mar-20 16:21 36.080406 -115.134859 268 2062ft 0kts
20-Mar-20 16:22 36.080406 -115.134859 268 2062ft 0kts
20-Mar-20 16:23 36.080406 -115.134859 268 2062ft 0kts
20-Mar-20 16:24 36.080406 -115.134859 268 2062ft 0kts
20-Mar-20 16:25 36.080406 -115.134859 268 2062ft 0kts
20-Mar-20 16:26 36.080406 -115.134859 268 2062ft 0kts
20-Mar-20 16:27 36.080406 -115.134859 268 2062ft 0kts
20-Mar-20 16:28 36.080406 -115.134859 268 2062ft 0kts
20-Mar-20 16:29 36.080406 -115.134859 268 2062ft 0kts
20-Mar-20 16:30 36.080406 -115.134859 268 2062ft 0kts
20-Mar-20 16:31 36.080406 -115.134859 268 2062ft 0kts
20-Mar-20 16:32 36.080406 -115.134859 268 2062ft 0kts
20-Mar-20 16:33 36.080406 -115.134810 245 2061ft 1kts
20-Mar-20 16:34 36.080487 -115.134305 202 2059ft 1kts
20-Mar-20 16:35 36.080488 -115.134045 90 2058ft 0kts
20-Mar-20 16:36 36.080389 -115.133999 178 2058ft 0kts
20-Mar-20 16:37 36.080389 -115.133999 178 2058ft 0kts
20-Mar-20 16:38 36.080389 -115.133999 178 2058ft 0kts
20-Mar-20 16:39 36.080389 -115.133999 178 2058ft 0kts
20-Mar-20 16:40 36.079489 -115.133735 144 2059ft 7kts
20-Mar-20 16:41 36.078306 -115.127647 89 2045ft 29kts
20-Mar-20 16:42 36.078280 -115.122714 110 2037ft 6kts
20-Mar-20 16:43 36.077501 -115.121505 138 2038ft 0kts
20-Mar-20 16:44 36.076454 -115.121872 264 2040ft 12kts
20-Mar-20 16:45 36.076437 -115.148563 268 2129ft 181kts
20-Mar-20 16:46 36.076501 -115.214374 268 4553ft 203kts
20-Mar-20 16:47 36.039542 -115.270587 200 6159ft 264kts
20-Mar-20 16:48 35.968318 -115.299051 176 7018ft 271kts
20-Mar-20 16:49 35.894381 -115.272325 157 9251ft 283kts
20-Mar-20 16:50 35.864937 -115.183330 91 11166ft 331kts
20-Mar-20 16:51 35.869166 -115.060540 70 12079ft 388kts
20-Mar-20 16:52 35.923743 -114.936706 61 13153ft 422kts
20-Mar-20 16:53 35.978229 -114.805715 64 14596ft 436kts
20-Mar-20 16:54 36.031348 -114.668407 64 16014ft 446kts
20-Mar-20 16:55 36.085658 -114.527178 64 17209ft 459kts
20-Mar-20 16:56 36.141318 -114.381906 64 18325ft 471kts
20-Mar-20 16:57 36.197796 -114.233189 66 19381ft 480kts
20-Mar-20 16:58 36.252216 -114.080149 66 20414ft 488kts
20-Mar-20 16:59 36.307301 -113.924557 66 21391ft 494kts
20-Mar-20 17:00 36.362762 -113.767093 66 22233ft 501kts
20-Mar-20 17:01 36.418781 -113.607209 66 23035ft 508kts
20-Mar-20 17:02 36.475435 -113.444665 66 23736ft 516kts
20-Mar-20 17:03 36.532795 -113.279212 67 24398ft 522kts
20-Mar-20 17:04 36.590361 -113.112224 66 24953ft 528kts
20-Mar-20 17:05 36.648283 -112.943275 66 25549ft 531kts
20-Mar-20 17:06 36.705936 -112.774184 66 26288ft 531kts
20-Mar-20 17:07 36.763697 -112.603797 66 27053ft 532kts
20-Mar-20 17:08 36.821173 -112.433203 66 27810ft 532kts
20-Mar-20 17:09 36.878506 -112.262153 67 28565ft 532kts
20-Mar-20 17:10 36.935601 -112.090778 67 29233ft 534kts
20-Mar-20 17:11 36.992404 -111.919268 67 29994ft 533kts
20-Mar-20 17:12 37.048909 -111.747697 67 30773ft 532kts
20-Mar-20 17:13 37.104947 -111.576537 67 31551ft 530kts
20-Mar-20 17:14 37.160462 -111.405916 67 32278ft 528kts
20-Mar-20 17:15 37.216829 -111.235737 60 32967ft 524kts
20-Mar-20 17:16 37.304514 -111.091751 48 33528ft 518kts
20-Mar-20 17:17 37.394699 -110.951371 48 34080ft 517kts
20-Mar-20 17:18 37.485165 -110.809827 48 34628ft 514kts
20-Mar-20 17:19 37.574293 -110.669835 48 35158ft 512kts
20-Mar-20 17:20 37.663398 -110.529230 48 35271ft 511kts
20-Mar-20 17:21 37.753132 -110.387087 47 35273ft 525kts
20-Mar-20 17:22 37.844665 -110.241401 48 35279ft 531kts
20-Mar-20 17:23 37.936367 -110.094825 48 35300ft 531kts
20-Mar-20 17:24 38.028477 -109.946932 48 35310ft 531kts
20-Mar-20 17:25 38.119811 -109.799538 48 35292ft 530kts
20-Mar-20 17:26 38.210510 -109.652535 48 35286ft 529kts
20-Mar-20 17:27 38.301099 -109.504999 48 35248ft 528kts
20-Mar-20 17:28 38.391208 -109.357665 48 35206ft 527kts
20-Mar-20 17:29 38.480857 -109.210332 48 35191ft 525kts
20-Mar-20 17:30 38.569804 -109.063559 48 35217ft 524kts
20-Mar-20 17:31 38.658860 -108.915866 48 34246ft 523kts
20-Mar-20 17:32 38.747825 -108.767683 49 31478ft 528kts
20-Mar-20 17:33 38.815495 -108.601151 69 28820ft 530kts
20-Mar-20 17:34 38.866938 -108.426007 69 26165ft 525kts
20-Mar-20 17:35 38.917149 -108.254557 69 24270ft 522kts
20-Mar-20 17:36 38.967928 -108.079940 69 24252ft 522kts
20-Mar-20 17:37 39.018166 -107.906037 70 23384ft 509kts
20-Mar-20 17:38 39.066237 -107.738769 70 21266ft 489kts
20-Mar-20 17:39 39.112638 -107.575965 70 20268ft 484kts
20-Mar-20 17:40 39.158252 -107.413743 73 20266ft 482kts
20-Mar-20 17:41 39.187777 -107.245387 79 20265ft 481kts
20-Mar-20 17:42 39.215582 -107.076796 79 20266ft 483kts
20-Mar-20 17:43 39.278770 -106.926081 39 20239ft 483kts
20-Mar-20 17:44 39.397303 -106.863564 355 19928ft 443kts
20-Mar-20 17:45 39.488712 -106.929333 287 18877ft 347kts
20-Mar-20 17:46 39.458729 -107.018654 194 17578ft 282kts
20-Mar-20 17:47 39.406953 -106.961327 86 16223ft 282kts
20-Mar-20 17:48 39.447942 -106.880182 48 14890ft 260kts
20-Mar-20 17:49 39.497643 -106.829242 339 13494ft 199kts
20-Mar-20 17:51 39.497228 -106.875400 222 13041ft 169kts
20-Mar-20 17:52 39.460424 -106.913193 239 13056ft 167kts
20-Mar-20 17:53 39.484887 -106.961485 331 13070ft 181kts
20-Mar-20 17:54 39.535453 -106.951551 22 13050ft 195kts
20-Mar-20 17:55 39.528028 -106.904230 196 13048ft 166kts
20-Mar-20 17:56 39.500791 -106.950754 239 13053ft 168kts
20-Mar-20 17:57 39.458832 -106.965005 179 13056ft 170kts
20-Mar-20 17:58 39.412064 -106.958138 180 13056ft 168kts
20-Mar-20 17:59 39.369044 -106.932826 131 13056ft 185kts
20-Mar-20 18:00 39.326738 -106.904607 177 12722ft 171kts
20-Mar-20 18:01 39.278073 -106.893551 164 9955ft 200kts
20-Mar-20 18:02 39.227034 -106.870741 159 7843ft 128kts
20-Mar-20 18:03 39.220235 -106.866409 131 7843ft 6kts
20-Mar-20 18:04 39.218691 -106.864729 76 7843ft 2kts

Navigation Log

Ident Type
Flight plan parsing failed, navigation log unavailable